sensor_id;sensor_type;location;lat;lon;timestamp;temperature;humidity
22838;DHT22;11585;51.450;-0.240;2023-12-07T00:01:52;6.70;99.90
22838;DHT22;11585;51.450;-0.240;2023-12-07T00:04:18;6.70;99.90
22838;DHT22;11585;51.450;-0.240;2023-12-07T00:06:44;6.70;99.90
22838;DHT22;11585;51.450;-0.240;2023-12-07T00:09:12;6.70;99.90
22838;DHT22;11585;51.450;-0.240;2023-12-07T00:11:37;6.70;99.90
22838;DHT22;11585;51.450;-0.240;2023-12-07T00:14:03;6.70;99.90
22838;DHT22;11585;51.450;-0.240;2023-12-07T00:16:29;6.70;99.90
22838;DHT22;11585;51.450;-0.240;2023-12-07T00:18:54;6.70;99.90
22838;DHT22;11585;51.450;-0.240;2023-12-07T00:21:20;6.70;99.90
22838;DHT22;11585;51.450;-0.240;2023-12-07T00:23:46;6.70;99.90
22838;DHT22;11585;51.450;-0.240;2023-12-07T00:26:11;6.70;99.90
22838;DHT22;11585;51.450;-0.240;2023-12-07T00:28:37;6.70;99.90
22838;DHT22;11585;51.450;-0.240;2023-12-07T00:31:03;6.70;99.90
22838;DHT22;11585;51.450;-0.240;2023-12-07T00:33:29;6.70;99.90
22838;DHT22;11585;51.450;-0.240;2023-12-07T00:35:55;6.80;99.90
22838;DHT22;11585;51.450;-0.240;2023-12-07T00:38:21;6.80;99.90
22838;DHT22;11585;51.450;-0.240;2023-12-07T00:40:47;6.80;99.90
22838;DHT22;11585;51.450;-0.240;2023-12-07T00:43:14;6.80;99.90
22838;DHT22;11585;51.450;-0.240;2023-12-07T00:45:40;6.80;99.90
22838;DHT22;11585;51.450;-0.240;2023-12-07T00:48:06;6.80;99.90
22838;DHT22;11585;51.450;-0.240;2023-12-07T00:50:31;6.80;99.90
22838;DHT22;11585;51.450;-0.240;2023-12-07T00:52:57;6.80;99.90
22838;DHT22;11585;51.450;-0.240;2023-12-07T00:55:23;6.80;99.90
22838;DHT22;11585;51.450;-0.240;2023-12-07T00:57:48;6.80;99.90
22838;DHT22;11585;51.450;-0.240;2023-12-07T01:00:14;6.80;99.90
22838;DHT22;11585;51.450;-0.240;2023-12-07T01:02:41;6.80;99.90
22838;DHT22;11585;51.450;-0.240;2023-12-07T01:05:07;6.80;99.90
22838;DHT22;11585;51.450;-0.240;2023-12-07T01:07:34;6.80;99.90
22838;DHT22;11585;51.450;-0.240;2023-12-07T01:09:59;6.90;99.90
22838;DHT22;11585;51.450;-0.240;2023-12-07T01:12:45;6.90;99.90
22838;DHT22;11585;51.450;-0.240;2023-12-07T01:15:10;6.90;99.90
22838;DHT22;11585;51.450;-0.240;2023-12-07T01:17:36;6.90;99.90
22838;DHT22;11585;51.450;-0.240;2023-12-07T01:20:03;6.90;99.90
22838;DHT22;11585;51.450;-0.240;2023-12-07T01:22:30;6.90;99.90
22838;DHT22;11585;51.450;-0.240;2023-12-07T01:24:56;6.90;99.90
22838;DHT22;11585;51.450;-0.240;2023-12-07T01:27:21;6.90;99.90
22838;DHT22;11585;51.450;-0.240;2023-12-07T01:29:47;6.90;99.90
22838;DHT22;11585;51.450;-0.240;2023-12-07T01:32:14;6.90;99.90
22838;DHT22;11585;51.450;-0.240;2023-12-07T01:34:39;6.90;99.90
22838;DHT22;11585;51.450;-0.240;2023-12-07T01:37:05;6.90;99.90
22838;DHT22;11585;51.450;-0.240;2023-12-07T01:39:31;6.90;99.90
22838;DHT22;11585;51.450;-0.240;2023-12-07T01:42:15;6.90;99.90
22838;DHT22;11585;51.450;-0.240;2023-12-07T01:44:41;7.00;99.90
22838;DHT22;11585;51.450;-0.240;2023-12-07T01:47:07;6.90;99.90
22838;DHT22;11585;51.450;-0.240;2023-12-07T01:49:34;7.00;99.90
22838;DHT22;11585;51.450;-0.240;2023-12-07T01:52:02;7.00;99.90
22838;DHT22;11585;51.450;-0.240;2023-12-07T01:54:28;6.90;99.90
22838;DHT22;11585;51.450;-0.240;2023-12-07T01:56:54;7.00;99.90
22838;DHT22;11585;51.450;-0.240;2023-12-07T01:59:21;7.00;99.90
22838;DHT22;11585;51.450;-0.240;2023-12-07T02:01:46;7.00;99.90
22838;DHT22;11585;51.450;-0.240;2023-12-07T02:04:13;7.00;99.90
22838;DHT22;11585;51.450;-0.240;2023-12-07T02:06:38;7.00;99.90
22838;DHT22;11585;51.450;-0.240;2023-12-07T02:09:04;7.00;99.90
22838;DHT22;11585;51.450;-0.240;2023-12-07T02:11:32;7.00;99.90
22838;DHT22;11585;51.450;-0.240;2023-12-07T02:13:58;7.00;99.90
22838;DHT22;11585;51.450;-0.240;2023-12-07T02:17:14;7.00;99.90
22838;DHT22;11585;51.450;-0.240;2023-12-07T02:22:14;7.00;99.90
22838;DHT22;11585;51.450;-0.240;2023-12-07T02:24:54;7.00;99.90
22838;DHT22;11585;51.450;-0.240;2023-12-07T02:27:36;7.00;99.90
22838;DHT22;11585;51.450;-0.240;2023-12-07T02:30:02;7.10;99.90
22838;DHT22;11585;51.450;-0.240;2023-12-07T02:32:31;7.00;99.90
22838;DHT22;11585;51.450;-0.240;2023-12-07T02:34:57;7.10;99.90
22838;DHT22;11585;51.450;-0.240;2023-12-07T02:37:25;7.10;99.90
22838;DHT22;11585;51.450;-0.240;2023-12-07T02:39:53;7.10;99.90
22838;DHT22;11585;51.450;-0.240;2023-12-07T02:42:22;7.10;99.90
22838;DHT22;11585;51.450;-0.240;2023-12-07T02:44:51;7.10;99.90
22838;DHT22;11585;51.450;-0.240;2023-12-07T02:47:17;7.10;99.90
22838;DHT22;11585;51.450;-0.240;2023-12-07T02:49:43;7.10;99.90
22838;DHT22;11585;51.450;-0.240;2023-12-07T02:52:29;7.10;99.90
22838;DHT22;11585;51.450;-0.240;2023-12-07T02:54:55;7.10;99.90
22838;DHT22;11585;51.450;-0.240;2023-12-07T02:57:21;7.10;99.90
22838;DHT22;11585;51.450;-0.240;2023-12-07T02:59:46;7.10;99.90
22838;DHT22;11585;51.450;-0.240;2023-12-07T03:02:16;7.10;99.90
22838;DHT22;11585;51.450;-0.240;2023-12-07T03:04:42;7.10;99.90
22838;DHT22;11585;51.450;-0.240;2023-12-07T03:07:07;7.10;99.90
22838;DHT22;11585;51.450;-0.240;2023-12-07T03:09:33;7.10;99.90
22838;DHT22;11585;51.450;-0.240;2023-12-07T03:12:18;7.10;99.90
22838;DHT22;11585;51.450;-0.240;2023-12-07T03:14:44;7.10;99.90
22838;DHT22;11585;51.450;-0.240;2023-12-07T03:17:10;7.10;99.90
22838;DHT22;11585;51.450;-0.240;2023-12-07T03:19:39;7.10;99.90
22838;DHT22;11585;51.450;-0.240;2023-12-07T03:22:06;7.20;99.90
22838;DHT22;11585;51.450;-0.240;2023-12-07T03:24:33;7.10;99.90
22838;DHT22;11585;51.450;-0.240;2023-12-07T03:26:59;7.20;99.90
22838;DHT22;11585;51.450;-0.240;2023-12-07T03:29:24;7.20;99.90
22838;DHT22;11585;51.450;-0.240;2023-12-07T03:31:50;7.20;99.90
22838;DHT22;11585;51.450;-0.240;2023-12-07T03:34:16;7.20;99.90
22838;DHT22;11585;51.450;-0.240;2023-12-07T03:36:48;7.20;99.90
22838;DHT22;11585;51.450;-0.240;2023-12-07T03:39:14;7.20;99.90
22838;DHT22;11585;51.450;-0.240;2023-12-07T03:41:41;7.20;99.90
22838;DHT22;11585;51.450;-0.240;2023-12-07T03:44:07;7.20;99.90
22838;DHT22;11585;51.450;-0.240;2023-12-07T03:46:33;7.20;99.90
22838;DHT22;11585;51.450;-0.240;2023-12-07T03:48:58;7.20;99.90
22838;DHT22;11585;51.450;-0.240;2023-12-07T03:51:26;7.20;99.90
22838;DHT22;11585;51.450;-0.240;2023-12-07T03:53:52;7.20;99.90
22838;DHT22;11585;51.450;-0.240;2023-12-07T03:56:28;7.20;99.90
22838;DHT22;11585;51.450;-0.240;2023-12-07T03:58:54;7.20;99.90
22838;DHT22;11585;51.450;-0.240;2023-12-07T04:04:42;7.20;99.90
22838;DHT22;11585;51.450;-0.240;2023-12-07T04:07:07;7.20;99.90
22838;DHT22;11585;51.450;-0.240;2023-12-07T04:09:33;7.20;99.90
22838;DHT22;11585;51.450;-0.240;2023-12-07T04:12:00;7.20;99.90
22838;DHT22;11585;51.450;-0.240;2023-12-07T04:14:25;7.20;99.90
22838;DHT22;11585;51.450;-0.240;2023-12-07T04:16:51;7.20;99.90
22838;DHT22;11585;51.450;-0.240;2023-12-07T04:19:17;7.20;99.90
22838;DHT22;11585;51.450;-0.240;2023-12-07T04:21:42;7.20;99.90
22838;DHT22;11585;51.450;-0.240;2023-12-07T04:24:08;7.20;99.90
22838;DHT22;11585;51.450;-0.240;2023-12-07T04:26:34;7.30;99.90
22838;DHT22;11585;51.450;-0.240;2023-12-07T04:28:59;7.30;99.90
22838;DHT22;11585;51.450;-0.240;2023-12-07T04:31:45;7.30;99.90
22838;DHT22;11585;51.450;-0.240;2023-12-07T04:34:11;7.30;99.90
22838;DHT22;11585;51.450;-0.240;2023-12-07T04:36:36;7.30;99.90
22838;DHT22;11585;51.450;-0.240;2023-12-07T04:39:02;7.30;99.90
22838;DHT22;11585;51.450;-0.240;2023-12-07T04:41:30;7.30;99.90
22838;DHT22;11585;51.450;-0.240;2023-12-07T04:43:55;7.30;99.90
22838;DHT22;11585;51.450;-0.240;2023-12-07T04:46:21;7.30;99.90
22838;DHT22;11585;51.450;-0.240;2023-12-07T04:48:46;7.30;99.90
22838;DHT22;11585;51.450;-0.240;2023-12-07T04:51:12;7.30;99.90
22838;DHT22;11585;51.450;-0.240;2023-12-07T04:53:40;7.30;99.90
22838;DHT22;11585;51.450;-0.240;2023-12-07T04:56:06;7.30;99.90
22838;DHT22;11585;51.450;-0.240;2023-12-07T04:58:32;7.30;99.90
22838;DHT22;11585;51.450;-0.240;2023-12-07T05:00:57;7.30;99.90
22838;DHT22;11585;51.450;-0.240;2023-12-07T05:03:23;7.30;99.90
22838;DHT22;11585;51.450;-0.240;2023-12-07T05:05:49;7.30;99.90
22838;DHT22;11585;51.450;-0.240;2023-12-07T05:08:15;7.30;99.90
22838;DHT22;11585;51.450;-0.240;2023-12-07T05:10:41;7.30;99.90
22838;DHT22;11585;51.450;-0.240;2023-12-07T05:15:54;7.30;99.90
22838;DHT22;11585;51.450;-0.240;2023-12-07T05:18:20;7.30;99.90
22838;DHT22;11585;51.450;-0.240;2023-12-07T05:20:45;7.30;99.90
22838;DHT22;11585;51.450;-0.240;2023-12-07T05:23:13;7.30;99.90
22838;DHT22;11585;51.450;-0.240;2023-12-07T05:25:39;7.30;99.90
22838;DHT22;11585;51.450;-0.240;2023-12-07T05:28:05;7.30;99.90
22838;DHT22;11585;51.450;-0.240;2023-12-07T05:30:30;7.30;99.90
22838;DHT22;11585;51.450;-0.240;2023-12-07T05:33:15;7.30;99.90
22838;DHT22;11585;51.450;-0.240;2023-12-07T05:35:41;7.30;99.90
22838;DHT22;11585;51.450;-0.240;2023-12-07T05:38:07;7.30;99.90
22838;DHT22;11585;51.450;-0.240;2023-12-07T05:40:32;7.40;99.90
22838;DHT22;11585;51.450;-0.240;2023-12-07T05:43:17;7.30;99.90
22838;DHT22;11585;51.450;-0.240;2023-12-07T05:45:43;7.30;99.90
22838;DHT22;11585;51.450;-0.240;2023-12-07T05:48:10;7.40;99.90
22838;DHT22;11585;51.450;-0.240;2023-12-07T05:50:36;7.40;99.90
22838;DHT22;11585;51.450;-0.240;2023-12-07T05:53:06;7.40;99.90
22838;DHT22;11585;51.450;-0.240;2023-12-07T05:55:32;7.40;99.90
22838;DHT22;11585;51.450;-0.240;2023-12-07T05:57:58;7.40;99.90
22838;DHT22;11585;51.450;-0.240;2023-12-07T06:00:24;7.40;99.90
22838;DHT22;11585;51.450;-0.240;2023-12-07T06:02:51;7.40;99.90
22838;DHT22;11585;51.450;-0.240;2023-12-07T06:05:16;7.40;99.90
22838;DHT22;11585;51.450;-0.240;2023-12-07T06:07:42;7.40;99.90
22838;DHT22;11585;51.450;-0.240;2023-12-07T06:10:08;7.40;99.90
22838;DHT22;11585;51.450;-0.240;2023-12-07T06:12:39;7.40;99.90
22838;DHT22;11585;51.450;-0.240;2023-12-07T06:15:05;7.40;99.90
22838;DHT22;11585;51.450;-0.240;2023-12-07T06:17:33;7.40;99.90
22838;DHT22;11585;51.450;-0.240;2023-12-07T06:19:59;7.40;99.90
22838;DHT22;11585;51.450;-0.240;2023-12-07T06:22:44;7.40;99.90
22838;DHT22;11585;51.450;-0.240;2023-12-07T06:25:09;7.40;99.90
22838;DHT22;11585;51.450;-0.240;2023-12-07T06:27:36;7.40;99.90
22838;DHT22;11585;51.450;-0.240;2023-12-07T06:30:01;7.40;99.90
22838;DHT22;11585;51.450;-0.240;2023-12-07T06:32:28;7.40;99.90
22838;DHT22;11585;51.450;-0.240;2023-12-07T06:34:54;7.40;99.90
22838;DHT22;11585;51.450;-0.240;2023-12-07T06:37:19;7.40;99.90
22838;DHT22;11585;51.450;-0.240;2023-12-07T06:39:46;7.40;99.90
22838;DHT22;11585;51.450;-0.240;2023-12-07T06:42:30;7.40;99.90
22838;DHT22;11585;51.450;-0.240;2023-12-07T06:44:56;7.40;99.90
22838;DHT22;11585;51.450;-0.240;2023-12-07T06:47:21;7.40;99.90
22838;DHT22;11585;51.450;-0.240;2023-12-07T06:49:47;7.40;99.90
22838;DHT22;11585;51.450;-0.240;2023-12-07T06:52:13;7.40;99.90
22838;DHT22;11585;51.450;-0.240;2023-12-07T06:54:38;7.50;99.90
22838;DHT22;11585;51.450;-0.240;2023-12-07T06:57:04;7.50;99.90
22838;DHT22;11585;51.450;-0.240;2023-12-07T06:59:32;7.40;99.90
22838;DHT22;11585;51.450;-0.240;2023-12-07T07:01:59;7.50;99.90
22838;DHT22;11585;51.450;-0.240;2023-12-07T07:04:25;7.50;99.90
22838;DHT22;11585;51.450;-0.240;2023-12-07T07:06:51;7.40;99.90
22838;DHT22;11585;51.450;-0.240;2023-12-07T07:09:17;7.50;99.90
22838;DHT22;11585;51.450;-0.240;2023-12-07T07:11:47;7.50;99.90
22838;DHT22;11585;51.450;-0.240;2023-12-07T07:14:13;7.50;99.90
22838;DHT22;11585;51.450;-0.240;2023-12-07T07:16:39;7.50;99.90
22838;DHT22;11585;51.450;-0.240;2023-12-07T07:19:04;7.40;99.90
22838;DHT22;11585;51.450;-0.240;2023-12-07T07:21:50;7.50;99.90
22838;DHT22;11585;51.450;-0.240;2023-12-07T07:24:15;7.50;99.90
22838;DHT22;11585;51.450;-0.240;2023-12-07T07:26:41;7.50;99.90
22838;DHT22;11585;51.450;-0.240;2023-12-07T07:29:07;7.50;99.90
22838;DHT22;11585;51.450;-0.240;2023-12-07T07:31:34;7.50;99.90
22838;DHT22;11585;51.450;-0.240;2023-12-07T07:34:01;7.50;99.90
22838;DHT22;11585;51.450;-0.240;2023-12-07T07:36:27;7.50;99.90
22838;DHT22;11585;51.450;-0.240;2023-12-07T07:38:53;7.50;99.90
22838;DHT22;11585;51.450;-0.240;2023-12-07T07:41:19;7.50;99.90
22838;DHT22;11585;51.450;-0.240;2023-12-07T07:43:44;7.50;99.90
22838;DHT22;11585;51.450;-0.240;2023-12-07T07:46:10;7.50;99.90
22838;DHT22;11585;51.450;-0.240;2023-12-07T07:48:36;7.50;99.90
22838;DHT22;11585;51.450;-0.240;2023-12-07T07:51:02;7.50;99.90
22838;DHT22;11585;51.450;-0.240;2023-12-07T07:53:28;7.50;99.90
22838;DHT22;11585;51.450;-0.240;2023-12-07T07:55:54;7.50;99.90
22838;DHT22;11585;51.450;-0.240;2023-12-07T07:58:20;7.50;99.90
22838;DHT22;11585;51.450;-0.240;2023-12-07T08:00:45;7.50;99.90
22838;DHT22;11585;51.450;-0.240;2023-12-07T08:03:14;7.60;99.90
22838;DHT22;11585;51.450;-0.240;2023-12-07T08:05:39;7.60;99.90
22838;DHT22;11585;51.450;-0.240;2023-12-07T08:08:05;7.50;99.90
22838;DHT22;11585;51.450;-0.240;2023-12-07T08:10:30;7.50;99.90
22838;DHT22;11585;51.450;-0.240;2023-12-07T08:12:58;7.50;99.90
22838;DHT22;11585;51.450;-0.240;2023-12-07T08:15:24;7.50;99.90
22838;DHT22;11585;51.450;-0.240;2023-12-07T08:17:49;7.60;99.90
22838;DHT22;11585;51.450;-0.240;2023-12-07T08:20:16;7.50;99.90
22838;DHT22;11585;51.450;-0.240;2023-12-07T08:22:44;7.50;99.90
22838;DHT22;11585;51.450;-0.240;2023-12-07T08:25:10;7.50;99.90
22838;DHT22;11585;51.450;-0.240;2023-12-07T08:27:37;7.60;99.90
22838;DHT22;11585;51.450;-0.240;2023-12-07T08:30:04;7.60;99.90
22838;DHT22;11585;51.450;-0.240;2023-12-07T08:32:30;7.50;99.90
22838;DHT22;11585;51.450;-0.240;2023-12-07T08:34:56;7.60;99.90
22838;DHT22;11585;51.450;-0.240;2023-12-07T08:37:22;7.60;99.90
22838;DHT22;11585;51.450;-0.240;2023-12-07T08:39:47;7.60;99.90
22838;DHT22;11585;51.450;-0.240;2023-12-07T08:42:15;7.60;99.90
22838;DHT22;11585;51.450;-0.240;2023-12-07T08:44:43;7.60;99.90
22838;DHT22;11585;51.450;-0.240;2023-12-07T08:47:09;7.60;99.90
22838;DHT22;11585;51.450;-0.240;2023-12-07T08:49:34;7.60;99.90
22838;DHT22;11585;51.450;-0.240;2023-12-07T08:52:19;7.60;99.90
22838;DHT22;11585;51.450;-0.240;2023-12-07T08:54:45;7.60;99.90
22838;DHT22;11585;51.450;-0.240;2023-12-07T08:57:10;7.60;99.90
22838;DHT22;11585;51.450;-0.240;2023-12-07T08:59:36;7.60;99.90
22838;DHT22;11585;51.450;-0.240;2023-12-07T09:02:21;7.60;99.90
22838;DHT22;11585;51.450;-0.240;2023-12-07T09:04:47;7.60;99.90
22838;DHT22;11585;51.450;-0.240;2023-12-07T09:07:16;7.60;99.90
22838;DHT22;11585;51.450;-0.240;2023-12-07T09:09:42;7.60;99.90
22838;DHT22;11585;51.450;-0.240;2023-12-07T09:12:14;7.60;99.90
22838;DHT22;11585;51.450;-0.240;2023-12-07T09:14:41;7.60;99.90
22838;DHT22;11585;51.450;-0.240;2023-12-07T09:17:07;7.60;99.90
22838;DHT22;11585;51.450;-0.240;2023-12-07T09:19:32;7.70;99.90
22838;DHT22;11585;51.450;-0.240;2023-12-07T09:22:18;7.70;99.90
22838;DHT22;11585;51.450;-0.240;2023-12-07T09:24:44;7.70;99.90
22838;DHT22;11585;51.450;-0.240;2023-12-07T09:27:10;7.70;99.90
22838;DHT22;11585;51.450;-0.240;2023-12-07T09:29:36;7.70;99.90
22838;DHT22;11585;51.450;-0.240;2023-12-07T09:32:06;7.70;99.90
22838;DHT22;11585;51.450;-0.240;2023-12-07T09:34:32;7.70;99.90
22838;DHT22;11585;51.450;-0.240;2023-12-07T09:37:09;7.70;99.90
22838;DHT22;11585;51.450;-0.240;2023-12-07T09:39:36;7.70;99.90
22838;DHT22;11585;51.450;-0.240;2023-12-07T09:42:02;7.70;99.90
22838;DHT22;11585;51.450;-0.240;2023-12-07T09:44:28;7.70;99.90
22838;DHT22;11585;51.450;-0.240;2023-12-07T09:46:54;7.70;99.90
22838;DHT22;11585;51.450;-0.240;2023-12-07T09:49:21;7.80;99.90
22838;DHT22;11585;51.450;-0.240;2023-12-07T09:51:47;7.70;99.90
22838;DHT22;11585;51.450;-0.240;2023-12-07T09:54:13;7.70;99.90
22838;DHT22;11585;51.450;-0.240;2023-12-07T09:56:39;7.70;99.90
22838;DHT22;11585;51.450;-0.240;2023-12-07T09:59:06;7.80;99.90
22838;DHT22;11585;51.450;-0.240;2023-12-07T10:01:34;7.80;99.90
22838;DHT22;11585;51.450;-0.240;2023-12-07T10:04:20;7.80;99.90
22838;DHT22;11585;51.450;-0.240;2023-12-07T10:06:48;7.80;99.90
22838;DHT22;11585;51.450;-0.240;2023-12-07T10:09:14;7.80;99.90
22838;DHT22;11585;51.450;-0.240;2023-12-07T10:11:41;7.80;99.90
22838;DHT22;11585;51.450;-0.240;2023-12-07T10:14:07;7.80;99.90
22838;DHT22;11585;51.450;-0.240;2023-12-07T10:16:33;7.80;99.90
22838;DHT22;11585;51.450;-0.240;2023-12-07T10:19:14;7.80;99.90
22838;DHT22;11585;51.450;-0.240;2023-12-07T10:21:45;7.80;99.90
22838;DHT22;11585;51.450;-0.240;2023-12-07T10:24:11;7.90;99.90
22838;DHT22;11585;51.450;-0.240;2023-12-07T10:26:44;7.80;99.90
22838;DHT22;11585;51.450;-0.240;2023-12-07T10:29:10;7.90;99.90
22838;DHT22;11585;51.450;-0.240;2023-12-07T10:31:37;7.90;99.90
22838;DHT22;11585;51.450;-0.240;2023-12-07T10:34:05;7.90;99.90
22838;DHT22;11585;51.450;-0.240;2023-12-07T10:36:31;7.90;99.90
22838;DHT22;11585;51.450;-0.240;2023-12-07T10:38:56;7.90;99.90
22838;DHT22;11585;51.450;-0.240;2023-12-07T10:41:24;7.90;99.90
22838;DHT22;11585;51.450;-0.240;2023-12-07T10:44:09;7.90;99.90
22838;DHT22;11585;51.450;-0.240;2023-12-07T10:46:37;7.90;99.90
22838;DHT22;11585;51.450;-0.240;2023-12-07T10:49:07;7.90;99.90
22838;DHT22;11585;51.450;-0.240;2023-12-07T10:51:41;7.90;99.90
22838;DHT22;11585;51.450;-0.240;2023-12-07T10:54:07;7.90;99.90
22838;DHT22;11585;51.450;-0.240;2023-12-07T10:56:45;8.00;99.90
22838;DHT22;11585;51.450;-0.240;2023-12-07T10:59:12;7.90;99.90
22838;DHT22;11585;51.450;-0.240;2023-12-07T11:01:42;8.00;99.90
22838;DHT22;11585;51.450;-0.240;2023-12-07T11:04:14;8.00;99.90
22838;DHT22;11585;51.450;-0.240;2023-12-07T11:06:41;8.00;99.90
22838;DHT22;11585;51.450;-0.240;2023-12-07T11:09:09;8.00;99.90
22838;DHT22;11585;51.450;-0.240;2023-12-07T11:11:46;8.00;99.90
22838;DHT22;11585;51.450;-0.240;2023-12-07T11:14:14;8.00;99.90
22838;DHT22;11585;51.450;-0.240;2023-12-07T11:16:41;8.00;99.90
22838;DHT22;11585;51.450;-0.240;2023-12-07T11:22:01;8.00;99.90
22838;DHT22;11585;51.450;-0.240;2023-12-07T11:24:27;8.00;99.90
22838;DHT22;11585;51.450;-0.240;2023-12-07T11:26:56;8.00;99.90
22838;DHT22;11585;51.450;-0.240;2023-12-07T11:29:24;8.10;99.90
22838;DHT22;11585;51.450;-0.240;2023-12-07T11:31:52;8.00;99.90
22838;DHT22;11585;51.450;-0.240;2023-12-07T11:34:36;8.10;99.90
22838;DHT22;11585;51.450;-0.240;2023-12-07T11:37:03;8.10;99.90
22838;DHT22;11585;51.450;-0.240;2023-12-07T11:39:30;8.10;99.90
22838;DHT22;11585;51.450;-0.240;2023-12-07T11:42:10;8.10;99.90
22838;DHT22;11585;51.450;-0.240;2023-12-07T11:44:39;8.10;99.90
22838;DHT22;11585;51.450;-0.240;2023-12-07T11:47:06;8.10;99.90
22838;DHT22;11585;51.450;-0.240;2023-12-07T11:49:32;8.10;99.90
22838;DHT22;11585;51.450;-0.240;2023-12-07T11:51:59;8.10;99.90
22838;DHT22;11585;51.450;-0.240;2023-12-07T11:54:27;8.10;99.90
22838;DHT22;11585;51.450;-0.240;2023-12-07T11:56:57;8.10;99.90
22838;DHT22;11585;51.450;-0.240;2023-12-07T11:59:23;8.10;99.90
22838;DHT22;11585;51.450;-0.240;2023-12-07T12:01:51;8.10;99.90
22838;DHT22;11585;51.450;-0.240;2023-12-07T12:04:17;8.10;99.90
22838;DHT22;11585;51.450;-0.240;2023-12-07T12:06:46;8.20;99.90
22838;DHT22;11585;51.450;-0.240;2023-12-07T12:09:15;8.10;99.90
22838;DHT22;11585;51.450;-0.240;2023-12-07T12:11:47;8.10;99.90
22838;DHT22;11585;51.450;-0.240;2023-12-07T12:14:14;8.10;99.90
22838;DHT22;11585;51.450;-0.240;2023-12-07T12:16:50;8.20;99.90
22838;DHT22;11585;51.450;-0.240;2023-12-07T12:19:16;8.10;99.90
22838;DHT22;11585;51.450;-0.240;2023-12-07T12:21:42;8.20;99.90
22838;DHT22;11585;51.450;-0.240;2023-12-07T12:24:10;8.20;99.90
22838;DHT22;11585;51.450;-0.240;2023-12-07T12:26:37;8.20;99.90
22838;DHT22;11585;51.450;-0.240;2023-12-07T12:29:05;8.20;99.90
22838;DHT22;11585;51.450;-0.240;2023-12-07T12:31:32;8.20;99.90
22838;DHT22;11585;51.450;-0.240;2023-12-07T12:34:01;8.20;99.90
22838;DHT22;11585;51.450;-0.240;2023-12-07T12:36:27;8.20;99.90
22838;DHT22;11585;51.450;-0.240;2023-12-07T12:38:54;8.20;99.90
22838;DHT22;11585;51.450;-0.240;2023-12-07T12:41:20;8.20;99.90
22838;DHT22;11585;51.450;-0.240;2023-12-07T12:43:46;8.20;99.90
22838;DHT22;11585;51.450;-0.240;2023-12-07T12:46:13;8.20;99.90
22838;DHT22;11585;51.450;-0.240;2023-12-07T12:49:01;8.20;99.90
22838;DHT22;11585;51.450;-0.240;2023-12-07T12:51:28;8.20;99.90
22838;DHT22;11585;51.450;-0.240;2023-12-07T12:53:58;8.20;99.90
22838;DHT22;11585;51.450;-0.240;2023-12-07T12:56:25;8.20;99.90
22838;DHT22;11585;51.450;-0.240;2023-12-07T12:58:52;8.20;99.90
22838;DHT22;11585;51.450;-0.240;2023-12-07T13:01:18;8.20;99.90
22838;DHT22;11585;51.450;-0.240;2023-12-07T13:03:46;8.20;99.90
22838;DHT22;11585;51.450;-0.240;2023-12-07T13:06:15;8.20;99.90
22838;DHT22;11585;51.450;-0.240;2023-12-07T13:08:43;8.20;99.90
22838;DHT22;11585;51.450;-0.240;2023-12-07T13:11:09;8.20;99.90
22838;DHT22;11585;51.450;-0.240;2023-12-07T13:13:35;8.20;99.90
22838;DHT22;11585;51.450;-0.240;2023-12-07T13:16:01;8.20;99.90
22838;DHT22;11585;51.450;-0.240;2023-12-07T13:18:26;8.20;99.90
22838;DHT22;11585;51.450;-0.240;2023-12-07T13:20:52;8.20;99.90
22838;DHT22;11585;51.450;-0.240;2023-12-07T13:23:19;8.30;99.90
22838;DHT22;11585;51.450;-0.240;2023-12-07T13:25:46;8.20;99.90
22838;DHT22;11585;51.450;-0.240;2023-12-07T13:28:12;8.30;99.90
22838;DHT22;11585;51.450;-0.240;2023-12-07T13:30:38;8.30;99.90
22838;DHT22;11585;51.450;-0.240;2023-12-07T13:33:06;8.30;99.90
22838;DHT22;11585;51.450;-0.240;2023-12-07T13:35:34;8.20;99.90
22838;DHT22;11585;51.450;-0.240;2023-12-07T13:38:00;8.30;99.90
22838;DHT22;11585;51.450;-0.240;2023-12-07T13:40:25;8.30;99.90
22838;DHT22;11585;51.450;-0.240;2023-12-07T13:42:52;8.30;99.90
22838;DHT22;11585;51.450;-0.240;2023-12-07T13:45:18;8.30;99.90
22838;DHT22;11585;51.450;-0.240;2023-12-07T13:47:45;8.30;99.90
22838;DHT22;11585;51.450;-0.240;2023-12-07T13:50:11;8.30;99.90
22838;DHT22;11585;51.450;-0.240;2023-12-07T13:52:38;8.30;99.90
22838;DHT22;11585;51.450;-0.240;2023-12-07T13:55:04;8.30;99.90
22838;DHT22;11585;51.450;-0.240;2023-12-07T13:57:30;8.30;99.90
22838;DHT22;11585;51.450;-0.240;2023-12-07T13:59:55;8.30;99.90
22838;DHT22;11585;51.450;-0.240;2023-12-07T14:02:21;8.30;99.90
22838;DHT22;11585;51.450;-0.240;2023-12-07T14:04:47;8.30;99.90
22838;DHT22;11585;51.450;-0.240;2023-12-07T14:07:16;8.30;99.90
22838;DHT22;11585;51.450;-0.240;2023-12-07T14:09:44;8.30;99.90
22838;DHT22;11585;51.450;-0.240;2023-12-07T14:12:11;8.30;99.90
22838;DHT22;11585;51.450;-0.240;2023-12-07T14:14:42;8.20;99.90
22838;DHT22;11585;51.450;-0.240;2023-12-07T14:17:08;8.30;99.90
22838;DHT22;11585;51.450;-0.240;2023-12-07T14:19:34;8.20;99.90
22838;DHT22;11585;51.450;-0.240;2023-12-07T14:22:00;8.20;99.90
22838;DHT22;11585;51.450;-0.240;2023-12-07T14:24:26;8.30;99.90
22838;DHT22;11585;51.450;-0.240;2023-12-07T14:26:53;8.20;99.90
22838;DHT22;11585;51.450;-0.240;2023-12-07T14:29:19;8.20;99.90
22838;DHT22;11585;51.450;-0.240;2023-12-07T14:31:47;8.20;99.90
22838;DHT22;11585;51.450;-0.240;2023-12-07T14:34:13;8.20;99.90
22838;DHT22;11585;51.450;-0.240;2023-12-07T14:36:40;8.20;99.90
22838;DHT22;11585;51.450;-0.240;2023-12-07T14:39:07;8.20;99.90
22838;DHT22;11585;51.450;-0.240;2023-12-07T14:41:33;8.20;99.90
22838;DHT22;11585;51.450;-0.240;2023-12-07T14:43:59;8.20;99.90
22838;DHT22;11585;51.450;-0.240;2023-12-07T14:46:25;8.20;99.90
22838;DHT22;11585;51.450;-0.240;2023-12-07T14:48:52;8.20;99.90
22838;DHT22;11585;51.450;-0.240;2023-12-07T14:51:18;8.20;99.90
22838;DHT22;11585;51.450;-0.240;2023-12-07T14:53:46;8.20;99.90
22838;DHT22;11585;51.450;-0.240;2023-12-07T14:56:12;8.20;99.90
22838;DHT22;11585;51.450;-0.240;2023-12-07T14:58:38;8.20;99.90
22838;DHT22;11585;51.450;-0.240;2023-12-07T15:01:06;8.20;99.90
22838;DHT22;11585;51.450;-0.240;2023-12-07T15:03:31;8.20;99.90
22838;DHT22;11585;51.450;-0.240;2023-12-07T15:05:57;8.20;99.90
22838;DHT22;11585;51.450;-0.240;2023-12-07T15:08:23;8.20;99.90
22838;DHT22;11585;51.450;-0.240;2023-12-07T15:10:49;8.20;99.90
22838;DHT22;11585;51.450;-0.240;2023-12-07T15:13:18;8.20;99.90
22838;DHT22;11585;51.450;-0.240;2023-12-07T15:15:44;8.20;99.90
22838;DHT22;11585;51.450;-0.240;2023-12-07T15:18:10;8.20;99.90
22838;DHT22;11585;51.450;-0.240;2023-12-07T15:20:36;8.20;99.90
22838;DHT22;11585;51.450;-0.240;2023-12-07T15:23:02;8.20;99.90
22838;DHT22;11585;51.450;-0.240;2023-12-07T15:25:28;8.20;99.90
22838;DHT22;11585;51.450;-0.240;2023-12-07T15:27:57;8.20;99.90
22838;DHT22;11585;51.450;-0.240;2023-12-07T15:30:23;8.20;99.90
22838;DHT22;11585;51.450;-0.240;2023-12-07T15:32:52;8.10;99.90
22838;DHT22;11585;51.450;-0.240;2023-12-07T15:35:18;8.20;99.90
22838;DHT22;11585;51.450;-0.240;2023-12-07T15:37:43;8.10;99.90
22838;DHT22;11585;51.450;-0.240;2023-12-07T15:40:10;8.10;99.90
22838;DHT22;11585;51.450;-0.240;2023-12-07T15:42:39;8.10;99.90
22838;DHT22;11585;51.450;-0.240;2023-12-07T15:45:06;8.10;99.90